Time;durP1;ratioP1;P1;durP2;ratioP2;P2;SDS_P1;SDS_P2;PMS_P1;PMS_P2;Temp;Humidity;BMP_temperature;BMP_pressure;BME280_temperature;BME280_humidity;BME280_pressure;Samples;Min_cycle;Max_cycle;Signal;HPM_P1;HPM_P2
2023/04/16 00:00:27;;;;;;;11.30;10.60;;;7.90;99.90;;;;;;4883585;29;20234;-77
2023/04/16 00:02:54;;;;;;;11.23;10.53;;;7.90;99.90;;;;;;4882687;29;20209;-77
2023/04/16 00:05:21;;;;;;;11.80;11.00;;;7.90;99.90;;;;;;4882577;29;20205;-77
2023/04/16 00:07:50;;;;;;;11.80;11.00;;;7.90;99.90;;;;;;4883263;29;20253;-76
2023/04/16 00:10:17;;;;;;;11.53;10.77;;;7.90;99.90;;;;;;4882624;29;20210;-77
2023/04/16 00:12:44;;;;;;;10.30;9.53;;;7.90;99.90;;;;;;4883459;29;20230;-77
2023/04/16 00:15:12;;;;;;;12.10;11.20;;;7.90;99.90;;;;;;4883527;29;20619;-78
2023/04/16 00:17:39;;;;;;;12.07;11.27;;;7.90;99.90;;;;;;4883826;29;20280;-77
2023/04/16 00:20:07;;;;;;;11.70;10.90;;;7.90;99.90;;;;;;4883421;29;20204;-77
2023/04/16 00:22:34;;;;;;;11.90;11.10;;;7.90;99.90;;;;;;4881177;29;20201;-77
2023/04/16 00:25:01;;;;;;;11.90;11.10;;;7.90;99.90;;;;;;4881569;29;20209;-77
2023/04/16 00:27:28;;;;;;;11.53;10.73;;;7.90;99.90;;;;;;4882618;29;20232;-77
2023/04/16 00:29:55;;;;;;;11.27;10.50;;;7.90;99.90;;;;;;4882320;29;20731;-77
2023/04/16 00:32:23;;;;;;;11.73;10.93;;;7.90;99.90;;;;;;4885769;29;20208;-77
2023/04/16 00:34:50;;;;;;;11.63;10.83;;;7.90;99.90;;;;;;4888275;29;20576;-78
2023/04/16 00:37:18;;;;;;;12.50;11.70;;;7.90;99.90;;;;;;4887411;29;20593;-78
2023/04/16 00:39:45;;;;;;;11.90;11.10;;;7.90;99.90;;;;;;4886685;29;20213;-78
2023/04/16 00:42:12;;;;;;;12.47;11.57;;;7.90;99.90;;;;;;4887228;29;20785;-79
2023/04/16 00:44:39;;;;;;;12.10;11.30;;;7.90;99.90;;;;;;4887302;29;20277;-78
2023/04/16 00:47:06;;;;;;;12.77;11.87;;;7.90;99.90;;;;;;4887446;29;20228;-82
2023/04/16 00:49:36;;;;;;;12.57;11.67;;;7.90;99.90;;;;;;4890467;29;20226;-79
2023/04/16 00:52:03;;;;;;;12.60;11.70;;;7.90;99.90;;;;;;4891636;29;20264;-78
2023/04/16 00:54:31;;;;;;;13.10;12.10;;;7.90;99.90;;;;;;4892125;29;20212;-78
2023/04/16 00:57:00;;;;;;;12.83;11.80;;;8.00;99.90;;;;;;4889962;29;20232;-78
2023/04/16 00:59:27;;;;;;;13.50;12.50;;;7.90;99.90;;;;;;4889340;29;20707;-79
2023/04/16 01:01:54;;;;;;;12.47;11.63;;;7.90;99.90;;;;;;4892298;29;20216;-78
2023/04/16 01:04:21;;;;;;;13.63;12.63;;;7.90;99.90;;;;;;4890119;29;20209;-78
2023/04/16 01:06:49;;;;;;;13.27;12.30;;;7.90;99.90;;;;;;4891422;29;20221;-81
2023/04/16 01:09:17;;;;;;;14.20;13.10;;;7.90;99.90;;;;;;4890556;29;20213;-79
2023/04/16 01:11:43;;;;;;;13.50;12.50;;;7.90;99.90;;;;;;4891480;29;20201;-77
2023/04/16 01:14:10;;;;;;;13.30;12.40;;;7.90;99.90;;;;;;4890599;29;20201;-78
2023/04/16 01:16:38;;;;;;;13.07;12.07;;;7.90;99.90;;;;;;4889779;29;20263;-79
2023/04/16 01:19:06;;;;;;;13.50;12.50;;;7.90;99.90;;;;;;4891133;29;20201;-79
2023/04/16 01:21:34;;;;;;;12.83;11.93;;;7.90;99.90;;;;;;4891899;29;20201;-81
2023/04/16 01:24:03;;;;;;;13.27;12.33;;;7.90;99.90;;;;;;4891008;29;20581;-76
2023/04/16 01:26:30;;;;;;;14.33;13.23;;;7.90;99.90;;;;;;4891749;29;20217;-77
2023/04/16 01:28:58;;;;;;;13.80;12.80;;;7.90;99.90;;;;;;4890280;29;20613;-78
2023/04/16 01:31:25;;;;;;;13.60;12.60;;;7.90;99.90;;;;;;4890347;29;20621;-78
2023/04/16 01:34:09;;;;;;;12.90;12.00;;;7.90;99.90;;;;;;4884971;29;20295;-76
2023/04/16 01:36:38;;;;;;;12.53;11.63;;;7.90;99.90;;;;;;4886121;29;20307;-78
2023/04/16 01:39:05;;;;;;;13.10;12.10;;;8.00;99.90;;;;;;4889479;29;20591;-79
2023/04/16 01:41:31;;;;;;;12.70;11.90;;;7.90;99.90;;;;;;4890663;29;20264;-78
2023/04/16 01:43:58;;;;;;;11.97;11.17;;;8.00;99.90;;;;;;4890696;29;20717;-79
2023/04/16 01:46:28;;;;;;;12.90;11.90;;;7.90;99.90;;;;;;4890054;29;20213;-79
2023/04/16 01:48:55;;;;;;;12.77;11.97;;;7.90;99.90;;;;;;4889714;29;20246;-77
2023/04/16 01:51:22;;;;;;;12.87;11.97;;;8.00;99.90;;;;;;4889883;29;20205;-78
2023/04/16 01:53:51;;;;;;;12.30;11.50;;;7.90;99.90;;;;;;4889430;29;20237;-79
2023/04/16 01:56:18;;;;;;;12.93;12.03;;;8.00;99.90;;;;;;4888108;29;20244;-77
2023/04/16 01:58:46;;;;;;;12.80;11.90;;;8.00;99.90;;;;;;4886073;29;20193;-78
2023/04/16 02:01:14;;;;;;;13.17;12.07;;;8.00;99.90;;;;;;4889439;29;20229;-79
2023/04/16 02:03:42;;;;;;;12.90;12.00;;;8.00;99.90;;;;;;4889897;29;20230;-79
2023/04/16 02:06:09;;;;;;;13.83;12.83;;;8.00;99.90;;;;;;4889857;29;20240;-80
2023/04/16 02:08:36;;;;;;;13.30;12.40;;;7.90;99.90;;;;;;4889277;29;20258;-79
2023/04/16 02:11:04;;;;;;;13.90;12.90;;;7.90;99.90;;;;;;4890161;29;20209;-78
2023/04/16 02:13:31;;;;;;;12.87;12.03;;;7.90;99.90;;;;;;4890918;29;20222;-77
2023/04/16 02:15:58;;;;;;;13.37;12.47;;;7.90;99.90;;;;;;4890511;29;20209;-80
2023/04/16 02:18:36;;;;;;;13.77;12.87;;;7.90;99.90;;;;;;4888993;29;20212;-77
2023/04/16 02:21:05;;;;;;;12.60;11.80;;;7.90;99.90;;;;;;4889108;29;20680;-77
2023/04/16 02:23:33;;;;;;;13.30;12.40;;;7.90;99.90;;;;;;4888206;29;20211;-78
2023/04/16 02:26:00;;;;;;;13.77;12.77;;;7.90;99.90;;;;;;4886591;29;20257;-78
2023/04/16 02:28:29;;;;;;;13.07;12.17;;;7.90;99.90;;;;;;4887096;29;20235;-78
2023/04/16 02:30:57;;;;;;;13.67;12.73;;;7.90;99.90;;;;;;4887363;29;20562;-79
2023/04/16 02:33:26;;;;;;;13.47;12.57;;;7.90;99.90;;;;;;4888402;29;20699;-79
2023/04/16 02:36:00;;;;;;;12.90;12.00;;;7.90;99.90;;;;;;4888425;29;20208;-79
2023/04/16 02:38:27;;;;;;;12.73;11.93;;;7.90;99.90;;;;;;4888846;29;20193;-78
2023/04/16 02:40:54;;;;;;;13.27;12.37;;;7.90;99.90;;;;;;4889443;29;20205;-79
2023/04/16 02:43:21;;;;;;;13.23;12.23;;;7.90;99.90;;;;;;4887511;29;20201;-80
2023/04/16 02:45:49;;;;;;;13.53;12.63;;;7.90;99.90;;;;;;4887977;29;20215;-79
2023/04/16 02:48:16;;;;;;;13.20;12.30;;;7.90;99.90;;;;;;4889063;29;20703;-78
2023/04/16 02:50:43;;;;;;;12.70;11.80;;;7.90;99.90;;;;;;4888460;29;20205;-78
2023/04/16 02:53:10;;;;;;;13.60;12.60;;;7.90;99.90;;;;;;4888053;29;20209;-79
2023/04/16 02:55:45;;;;;;;13.40;12.50;;;7.90;99.90;;;;;;4883165;29;20230;-77
2023/04/16 03:05:21;;;;;;;15.07;14.17;;;8.00;99.90;;;;;;4863811;29;20209;-78
2023/04/16 03:08:55;;;;;;;13.83;12.93;;;8.00;99.90;;;;;;4880838;29;20286;-79
2023/04/16 03:11:58;;;;;;;14.40;13.50;;;8.00;99.90;;;;;;4879736;29;20300;-78
2023/04/16 03:14:52;;;;;;;13.80;12.80;;;8.00;99.90;;;;;;4892106;29;20287;-80
2023/04/16 03:32:44;;;;;;;11.27;10.57;;;7.90;99.90;;;;;;4854655;29;20333;-81
2023/04/16 03:39:56;;;;;;;14.23;13.30;;;7.90;99.90;;;;;;4886839;29;20213;-86
2023/04/16 03:43:28;;;;;;;12.73;11.93;;;7.80;99.90;;;;;;4873334;29;20255;-83
2023/04/16 04:01:39;;;;;;;16.43;15.43;;;7.80;99.90;;;;;;4850663;29;20700;-84
2023/04/16 04:04:54;;;;;;;16.40;15.40;;;7.80;99.90;;;;;;4876415;29;20245;-81
2023/04/16 04:08:12;;;;;;;15.90;15.00;;;7.80;99.90;;;;;;4942399;23;20232;-85
2023/04/16 04:12:13;;;;;;;;;;;;;;;;;;;;;
2023/04/16 04:15:52;;;;;;;12.40;11.60;;;7.80;99.90;;;;;;4840271;29;20690;-86
2023/04/16 04:18:55;;;;;;;12.90;12.00;;;7.80;99.90;;;;;;4876536;29;20207;-82
2023/04/16 04:21:22;;;;;;;12.10;11.30;;;7.80;99.90;;;;;;4878343;29;20710;-79
2023/04/16 04:23:49;;;;;;;12.17;11.30;;;7.80;99.90;;;;;;4885737;29;20237;-81
2023/04/16 04:26:16;;;;;;;12.50;11.60;;;7.80;99.90;;;;;;4881620;29;20225;-81
2023/04/16 04:28:44;;;;;;;12.17;11.37;;;7.80;99.90;;;;;;4883079;29;20232;-82
2023/04/16 04:31:11;;;;;;;13.67;12.77;;;7.90;99.90;;;;;;4882555;29;20209;-80
2023/04/16 04:33:38;;;;;;;14.03;13.03;;;7.80;99.90;;;;;;4874431;29;20628;-81
2023/04/16 04:36:07;;;;;;;13.63;12.57;;;7.80;99.90;;;;;;4865757;29;20591;-80
2023/04/16 04:38:35;;;;;;;14.50;13.40;;;7.80;99.90;;;;;;4865935;29;20198;-82
2023/04/16 04:41:04;;;;;;;13.80;12.70;;;7.70;99.90;;;;;;4866453;29;20236;-80
2023/04/16 04:43:35;;;;;;;13.27;12.27;;;7.70;99.90;;;;;;4878393;29;20201;-81
2023/04/16 04:46:02;;;;;;;13.53;12.53;;;7.70;99.90;;;;;;4886214;29;20269;-80
2023/04/16 04:48:30;;;;;;;13.43;12.43;;;7.70;99.90;;;;;;4864374;29;20218;-82
2023/04/16 04:50:57;;;;;;;13.53;12.53;;;7.70;99.90;;;;;;4861006;29;20202;-77
2023/04/16 04:53:25;;;;;;;10.50;9.70;;;7.70;99.90;;;;;;4859696;29;20209;-78
2023/04/16 04:55:52;;;;;;;10.47;9.63;;;7.70;99.90;;;;;;4861712;29;20217;-80
2023/04/16 04:58:19;;;;;;;10.77;9.87;;;7.70;99.90;;;;;;4861315;29;20214;-77
2023/04/16 05:00:46;;;;;;;11.07;10.10;;;7.70;99.90;;;;;;4861441;29;20213;-80
2023/04/16 05:03:18;;;;;;;11.53;10.63;;;7.70;99.90;;;;;;4860795;29;20292;-79
2023/04/16 05:05:45;;;;;;;10.57;9.57;;;7.70;99.90;;;;;;4862911;29;20209;-78
2023/04/16 05:08:12;;;;;;;9.53;8.63;;;7.70;99.90;;;;;;4860848;29;20640;-78
2023/04/16 05:10:40;;;;;;;10.37;9.20;;;7.70;99.90;;;;;;4862700;29;20684;-78
2023/04/16 05:13:07;;;;;;;10.30;9.37;;;7.80;99.90;;;;;;4860975;29;20221;-77
2023/04/16 05:15:34;;;;;;;9.73;8.83;;;7.70;99.90;;;;;;4867998;29;20205;-80
2023/04/16 05:18:01;;;;;;;9.73;8.93;;;7.80;99.90;;;;;;4870952;29;20217;-77
2023/04/16 05:20:27;;;;;;;9.13;8.33;;;7.80;99.90;;;;;;4860261;29;20651;-77
2023/04/16 05:22:54;;;;;;;9.47;8.60;;;7.80;99.90;;;;;;4861018;29;20216;-78
2023/04/16 05:25:22;;;;;;;9.50;8.60;;;7.80;99.90;;;;;;4865110;29;20205;-78
2023/04/16 05:27:50;;;;;;;9.57;8.70;;;7.80;99.90;;;;;;4864972;29;20606;-83
2023/04/16 05:30:17;;;;;;;10.30;9.40;;;7.80;99.90;;;;;;4874847;29;20217;-78
2023/04/16 05:32:44;;;;;;;9.60;8.80;;;7.80;99.90;;;;;;4877170;29;20213;-79
2023/04/16 05:35:11;;;;;;;10.00;9.20;;;7.80;99.90;;;;;;4868600;29;20661;-78
2023/04/16 05:37:37;;;;;;;11.33;10.40;;;7.80;99.90;;;;;;4868883;29;20252;-78
2023/04/16 05:40:05;;;;;;;10.93;10.10;;;7.80;99.90;;;;;;4867104;29;20190;-79
2023/04/16 05:42:32;;;;;;;9.50;8.80;;;7.80;99.90;;;;;;4869299;29;20194;-78
2023/04/16 05:45:03;;;;;;;8.63;7.83;;;7.80;99.90;;;;;;4869575;29;20212;-79
2023/04/16 05:47:29;;;;;;;8.77;7.97;;;7.80;99.90;;;;;;4869885;29;20240;-79
2023/04/16 05:49:56;;;;;;;8.93;8.23;;;7.80;99.90;;;;;;4870287;29;20225;-77
2023/04/16 05:52:23;;;;;;;11.83;10.93;;;7.80;99.90;;;;;;4871032;29;20210;-80
2023/04/16 05:54:50;;;;;;;11.40;10.50;;;7.80;99.90;;;;;;4871098;29;20606;-79
2023/04/16 05:57:17;;;;;;;10.90;10.00;;;7.80;99.90;;;;;;4870122;29;20232;-78
2023/04/16 05:59:44;;;;;;;10.83;9.83;;;7.80;99.90;;;;;;4871331;29;20193;-80
2023/04/16 06:02:12;;;;;;;9.77;8.97;;;7.80;99.90;;;;;;4870879;29;20445;-78
2023/04/16 06:04:39;;;;;;;9.97;9.13;;;7.90;99.90;;;;;;4870901;29;20246;-78
2023/04/16 06:07:06;;;;;;;10.80;10.00;;;7.90;99.90;;;;;;4872012;29;20221;-78
2023/04/16 06:09:32;;;;;;;10.50;9.47;;;7.90;99.90;;;;;;4871001;29;20236;-78
2023/04/16 06:11:59;;;;;;;10.43;9.53;;;7.90;99.90;;;;;;4870778;29;20608;-79
2023/04/16 06:14:26;;;;;;;11.57;10.67;;;7.90;99.90;;;;;;4870268;29;20205;-78
2023/04/16 06:16:53;;;;;;;11.20;10.10;;;7.90;99.90;;;;;;4875451;29;20284;-79
2023/04/16 06:19:21;;;;;;;11.30;10.40;;;7.90;99.90;;;;;;4871393;29;20250;-77
2023/04/16 06:21:48;;;;;;;11.50;10.60;;;7.90;99.90;;;;;;4869569;29;20209;-78
2023/04/16 06:24:17;;;;;;;11.57;10.47;;;7.90;99.90;;;;;;4870552;29;20218;-78
2023/04/16 06:26:44;;;;;;;11.87;10.77;;;7.90;99.90;;;;;;4870539;29;20290;-79
2023/04/16 06:29:11;;;;;;;14.23;13.13;;;7.90;99.90;;;;;;4869633;29;20662;-79
2023/04/16 06:31:38;;;;;;;14.60;13.50;;;7.90;99.90;;;;;;4870777;29;20225;-79
2023/04/16 06:34:05;;;;;;;16.00;14.50;;;7.90;99.90;;;;;;4869545;29;20210;-78
2023/04/16 06:36:36;;;;;;;15.30;14.00;;;7.90;99.90;;;;;;4870837;29;20297;-79
2023/04/16 06:39:03;;;;;;;14.97;13.70;;;7.90;99.90;;;;;;4873049;29;20233;-80
2023/04/16 06:41:30;;;;;;;16.90;15.40;;;7.90;99.90;;;;;;4876343;29;20277;-79
2023/04/16 06:43:57;;;;;;;19.40;17.60;;;7.90;99.90;;;;;;4871201;29;20210;-78
2023/04/16 06:46:24;;;;;;;21.57;19.60;;;7.90;99.90;;;;;;4868853;29;20221;-78
2023/04/16 06:48:51;;;;;;;21.20;19.07;;;7.90;99.90;;;;;;4875838;29;20225;-79
2023/04/16 06:51:18;;;;;;;20.90;18.90;;;7.90;99.90;;;;;;4872720;29;20216;-79
2023/04/16 06:53:46;;;;;;;21.00;18.80;;;7.90;99.90;;;;;;4875927;29;20209;-80
2023/04/16 06:56:13;;;;;;;22.47;20.27;;;7.90;99.90;;;;;;4874915;29;20233;-77
2023/04/16 06:58:40;;;;;;;22.90;20.60;;;7.90;99.90;;;;;;4870830;29;20205;-77
2023/04/16 07:01:07;;;;;;;21.47;19.47;;;7.90;99.90;;;;;;4869499;29;20214;-78
2023/04/16 07:03:34;;;;;;;22.20;20.00;;;7.90;99.90;;;;;;4871448;29;20543;-79
2023/04/16 07:06:01;;;;;;;21.50;19.40;;;8.00;99.90;;;;;;4870118;29;20587;-80
2023/04/16 07:08:27;;;;;;;21.67;19.37;;;8.00;99.90;;;;;;4870526;29;20232;-79
2023/04/16 07:10:56;;;;;;;20.23;18.23;;;8.10;99.90;;;;;;4871379;29;20202;-79
2023/04/16 07:13:23;;;;;;;21.70;19.50;;;8.10;99.90;;;;;;4877917;29;20213;-78
2023/04/16 07:15:49;;;;;;;22.73;20.50;;;8.20;99.90;;;;;;4870283;29;20262;-78
2023/04/16 07:18:16;;;;;;;20.50;18.60;;;8.20;99.90;;;;;;4869291;29;20256;-79
2023/04/16 07:20:43;;;;;;;22.03;20.03;;;8.20;99.90;;;;;;4869937;29;20197;-78
2023/04/16 07:23:10;;;;;;;21.60;19.67;;;8.20;99.90;;;;;;4869638;29;20236;-78
2023/04/16 07:25:37;;;;;;;22.10;19.90;;;8.20;99.90;;;;;;4869512;29;20190;-79
2023/04/16 07:28:05;;;;;;;22.17;20.03;;;8.20;99.90;;;;;;4871020;29;20224;-77
2023/04/16 07:30:33;;;;;;;22.83;20.43;;;8.20;99.90;;;;;;4868910;29;20229;-80
2023/04/16 07:33:00;;;;;;;21.80;19.70;;;8.20;99.90;;;;;;4870856;29;20217;-78
2023/04/16 07:35:27;;;;;;;24.67;22.17;;;8.20;99.90;;;;;;4868697;29;20205;-78
2023/04/16 07:37:54;;;;;;;22.63;20.40;;;8.20;99.90;;;;;;4869381;29;20297;-79
2023/04/16 07:40:21;;;;;;;23.30;21.10;;;8.20;99.90;;;;;;4870015;29;20202;-78
2023/04/16 07:42:48;;;;;;;21.37;19.10;;;8.30;99.90;;;;;;4870390;29;20243;-77
2023/04/16 07:45:16;;;;;;;21.87;19.70;;;8.30;99.90;;;;;;4871001;29;20202;-80
2023/04/16 07:47:44;;;;;;;18.47;14.90;;;8.30;99.90;;;;;;4870325;29;20220;-79
2023/04/16 07:50:11;;;;;;;20.47;13.50;;;8.30;99.90;;;;;;4871055;29;20231;-78
2023/04/16 07:52:40;;;;;;;18.73;16.70;;;8.30;99.90;;;;;;4876203;29;20206;-78
2023/04/16 07:55:07;;;;;;;20.37;16.27;;;8.40;99.90;;;;;;4873075;29;20219;-79
2023/04/16 07:57:34;;;;;;;17.47;13.93;;;8.40;99.90;;;;;;4872880;29;20229;-78
2023/04/16 08:00:03;;;;;;;18.73;13.87;;;8.40;99.90;;;;;;4870655;29;20206;-80
2023/04/16 08:02:41;;;;;;;22.90;19.97;;;8.50;99.90;;;;;;4870850;29;20233;-79
2023/04/16 08:05:08;;;;;;;17.73;13.70;;;8.50;99.90;;;;;;4869704;29;20213;-79
2023/04/16 08:07:35;;;;;;;21.20;14.73;;;8.60;99.90;;;;;;4869747;29;20237;-78
2023/04/16 08:10:02;;;;;;;20.50;15.20;;;8.60;99.90;;;;;;4869246;29;20237;-81
2023/04/16 08:12:29;;;;;;;19.23;14.83;;;8.70;99.90;;;;;;4870362;29;20205;-79
2023/04/16 08:14:56;;;;;;;21.70;16.80;;;8.70;99.90;;;;;;4870088;29;20297;-78
2023/04/16 08:17:23;;;;;;;19.43;14.93;;;8.70;99.90;;;;;;4869552;29;20273;-78
2023/04/16 08:19:51;;;;;;;20.00;14.77;;;8.70;99.90;;;;;;4870610;29;20198;-79
2023/04/16 08:22:18;;;;;;;22.40;20.30;;;8.80;99.90;;;;;;4870362;29;20206;-79
2023/04/16 08:24:45;;;;;;;22.53;20.33;;;8.80;99.90;;;;;;4868685;29;20258;-78
2023/04/16 08:27:12;;;;;;;22.80;20.63;;;8.80;99.90;;;;;;4870236;29;20238;-78
2023/04/16 08:29:39;;;;;;;22.40;20.20;;;8.80;99.90;;;;;;4869717;29;20596;-79
2023/04/16 08:32:08;;;;;;;23.83;21.53;;;8.80;99.90;;;;;;4869822;29;20209;-78
2023/04/16 08:34:35;;;;;;;24.03;21.77;;;8.70;99.90;;;;;;4881729;29;20216;-78
2023/04/16 08:37:03;;;;;;;24.10;21.90;;;8.70;99.90;;;;;;4879304;29;20254;-78
2023/04/16 08:39:30;;;;;;;24.43;22.13;;;8.70;99.90;;;;;;4886353;29;20273;-78
2023/04/16 08:41:58;;;;;;;24.57;22.27;;;8.70;99.90;;;;;;4882614;29;20289;-78
2023/04/16 08:44:27;;;;;;;23.93;21.67;;;8.70;99.90;;;;;;4870467;29;20375;-79
2023/04/16 08:46:56;;;;;;;24.87;22.57;;;8.70;99.90;;;;;;4869369;29;20592;-76
2023/04/16 08:49:24;;;;;;;24.30;21.87;;;8.70;99.90;;;;;;4869241;29;20511;-79
2023/04/16 08:51:53;;;;;;;23.53;21.10;;;8.70;99.90;;;;;;4869008;29;20210;-79
2023/04/16 08:54:38;;;;;;;24.33;21.93;;;8.70;99.90;;;;;;4869756;29;20205;-79
2023/04/16 08:57:07;;;;;;;20.37;15.07;;;8.80;99.90;;;;;;4882712;29;20608;-80
2023/04/16 08:59:34;;;;;;;17.90;13.83;;;8.80;99.90;;;;;;4886158;29;20207;-77
2023/04/16 09:02:02;;;;;;;17.53;14.17;;;8.90;99.90;;;;;;4871666;29;20235;-80
2023/04/16 09:04:29;;;;;;;18.27;14.20;;;9.10;99.90;;;;;;4865479;29;20202;-81
2023/04/16 09:06:56;;;;;;;23.17;20.80;;;9.10;99.90;;;;;;4865839;29;20650;-78
2023/04/16 09:09:25;;;;;;;21.13;19.10;;;9.10;99.90;;;;;;4870137;29;20252;-78
2023/04/16 09:11:54;;;;;;;21.27;18.33;;;9.20;99.90;;;;;;4872030;29;20206;-78
2023/04/16 09:14:21;;;;;;;21.67;19.33;;;9.20;99.90;;;;;;4871749;29;20229;-79
2023/04/16 09:16:51;;;;;;;23.57;21.07;;;9.10;99.90;;;;;;4877639;29;20233;-79
2023/04/16 09:19:18;;;;;;;22.03;19.83;;;9.20;99.90;;;;;;4872847;29;20190;-78
2023/04/16 09:21:48;;;;;;;23.70;21.40;;;9.20;99.90;;;;;;4871376;29;20262;-78
2023/04/16 09:24:15;;;;;;;23.63;21.30;;;9.20;99.90;;;;;;4872183;29;20209;-79
2023/04/16 09:26:42;;;;;;;23.20;21.03;;;9.20;99.90;;;;;;4869857;29;20230;-79
2023/04/16 09:29:11;;;;;;;23.23;21.13;;;9.20;99.90;;;;;;4870546;29;20234;-79
2023/04/16 09:31:37;;;;;;;21.97;20.00;;;9.20;99.90;;;;;;4869601;29;20209;-79
2023/04/16 09:34:07;;;;;;;22.00;19.80;;;9.30;99.90;;;;;;4882205;29;20205;-79
2023/04/16 09:36:35;;;;;;;19.40;17.60;;;9.40;99.90;;;;;;4877883;29;20221;-79
2023/04/16 09:39:03;;;;;;;15.27;12.27;;;9.50;99.90;;;;;;4870515;29;20591;-79
2023/04/16 09:41:31;;;;;;;19.00;17.00;;;9.70;99.90;;;;;;4851419;29;20210;-80
2023/04/16 09:44:00;;;;;;;19.90;18.00;;;9.80;99.90;;;;;;4872813;29;20202;-85
2023/04/16 09:46:31;;;;;;;18.53;16.80;;;9.90;99.90;;;;;;4865794;29;20226;-83
2023/04/16 09:49:04;;;;;;;20.83;19.10;;;10.00;99.90;;;;;;4872765;29;20604;-85
2023/04/16 09:51:37;;;;;;;19.03;17.00;;;10.10;99.90;;;;;;4869669;29;20596;-83
2023/04/16 09:54:05;;;;;;;18.70;17.00;;;10.20;99.90;;;;;;4876994;29;20267;-78
2023/04/16 09:56:32;;;;;;;13.90;12.10;;;10.30;99.90;;;;;;4872672;29;20224;-77
2023/04/16 09:59:00;;;;;;;19.07;13.70;;;10.40;99.90;;;;;;4872702;29;20206;-78
2023/04/16 10:01:27;;;;;;;13.77;12.33;;;10.40;99.90;;;;;;4873172;29;20203;-78
2023/04/16 10:03:56;;;;;;;14.87;13.50;;;10.30;99.90;;;;;;4870666;29;20576;-81
2023/04/16 10:06:26;;;;;;;15.00;13.07;;;10.40;99.90;;;;;;4871574;29;20282;-83
2023/04/16 10:08:55;;;;;;;15.33;13.57;;;10.40;99.90;;;;;;4870118;29;20222;-82
2023/04/16 10:11:22;;;;;;;12.83;11.43;;;10.50;99.90;;;;;;4870100;29;20262;-81
2023/04/16 10:13:50;;;;;;;14.23;12.70;;;10.40;99.90;;;;;;4872665;29;20218;-83
2023/04/16 10:16:17;;;;;;;14.67;11.03;;;10.40;99.90;;;;;;4872149;29;20280;-84
2023/04/16 10:18:46;;;;;;;12.50;11.27;;;10.40;99.90;;;;;;4870791;29;20203;-83
2023/04/16 10:21:15;;;;;;;13.67;12.37;;;10.30;99.90;;;;;;4863849;29;20200;-83
2023/04/16 10:23:43;;;;;;;15.30;13.80;;;10.30;99.90;;;;;;4869487;29;20219;-81
2023/04/16 10:26:10;;;;;;;15.17;13.73;;;10.30;99.90;;;;;;4870970;29;20235;-84
2023/04/16 10:28:37;;;;;;;16.00;14.40;;;10.30;99.90;;;;;;4870277;29;20243;-84
2023/04/16 10:31:05;;;;;;;16.53;14.97;;;10.30;99.90;;;;;;4883978;29;20262;-83
2023/04/16 10:33:34;;;;;;;16.13;14.63;;;10.30;99.90;;;;;;4866920;29;20737;-83
2023/04/16 10:36:09;;;;;;;17.63;15.90;;;10.30;99.90;;;;;;4869500;29;20689;-82
2023/04/16 10:38:40;;;;;;;15.20;13.47;;;10.30;99.90;;;;;;4869108;29;20639;-82
2023/04/16 10:41:08;;;;;;;15.93;13.30;;;10.20;99.90;;;;;;4867608;29;20206;-85
2023/04/16 10:43:40;;;;;;;14.97;12.83;;;10.10;99.90;;;;;;4863891;29;20206;-82
2023/04/16 10:46:21;;;;;;;13.93;11.87;;;9.90;99.90;;;;;;4864826;29;20588;-82
2023/04/16 10:48:50;;;;;;;15.90;13.60;;;9.90;99.90;;;;;;4872700;29;20270;-82
2023/04/16 10:51:26;;;;;;;14.30;11.57;;;9.80;99.90;;;;;;4876614;29;21106;-83
2023/04/16 10:53:56;;;;;;;14.27;12.30;;;9.80;99.90;;;;;;4862993;29;20209;-83
2023/04/16 10:56:24;;;;;;;16.83;13.73;;;9.90;99.90;;;;;;4879533;29;20226;-81
2023/04/16 10:58:53;;;;;;;16.60;13.53;;;9.80;99.90;;;;;;4864601;29;20677;-82
2023/04/16 11:01:31;;;;;;;16.47;13.43;;;9.70;99.90;;;;;;4861218;29;20202;-81
2023/04/16 11:03:59;;;;;;;17.13;13.37;;;9.60;99.90;;;;;;4863959;29;20205;-82
2023/04/16 11:06:28;;;;;;;15.83;12.57;;;9.50;99.90;;;;;;4874394;29;20793;-81
2023/04/16 11:08:56;;;;;;;15.10;13.00;;;9.50;99.90;;;;;;4876998;29;20212;-80
2023/04/16 11:11:23;;;;;;;16.27;13.13;;;9.50;99.90;;;;;;4876575;29;20225;-82
2023/04/16 11:13:54;;;;;;;16.77;13.57;;;9.60;99.90;;;;;;4882482;29;20206;-82
2023/04/16 11:16:21;;;;;;;17.33;13.87;;;9.50;99.90;;;;;;4871006;29;20217;-82
2023/04/16 11:18:48;;;;;;;16.00;14.37;;;9.50;99.90;;;;;;4879471;29;20206;-82
2023/04/16 11:21:15;;;;;;;18.70;14.73;;;9.40;99.90;;;;;;4870288;29;20271;-82
2023/04/16 11:23:49;;;;;;;18.57;16.73;;;9.40;99.90;;;;;;4865638;29;20233;-80
2023/04/16 11:26:28;;;;;;;18.83;16.83;;;9.40;99.90;;;;;;4872866;29;20217;-80
2023/04/16 11:28:56;;;;;;;20.20;18.30;;;9.30;99.90;;;;;;4866511;29;20212;-80
2023/04/16 11:31:23;;;;;;;15.67;13.90;;;9.30;99.90;;;;;;4869033;29;20666;-80
2023/04/16 11:33:50;;;;;;;16.67;12.47;;;9.30;99.90;;;;;;4872694;29;20202;-81
2023/04/16 11:36:17;;;;;;;16.40;12.37;;;9.40;99.90;;;;;;4867825;29;20221;-81
2023/04/16 11:38:44;;;;;;;14.50;12.00;;;9.40;99.90;;;;;;4865909;29;20212;-81
2023/04/16 11:41:11;;;;;;;14.40;11.70;;;9.50;99.90;;;;;;4864823;29;20202;-77
2023/04/16 11:43:39;;;;;;;14.27;10.40;;;9.50;99.90;;;;;;4880454;29;20582;-82
2023/04/16 11:46:07;;;;;;;14.77;11.40;;;9.50;99.90;;;;;;4864123;29;20261;-81
2023/04/16 11:48:47;;;;;;;17.13;13.40;;;9.50;99.90;;;;;;4868694;29;20214;-81
2023/04/16 11:51:14;;;;;;;13.67;10.63;;;9.50;99.90;;;;;;4865433;29;20268;-82
2023/04/16 11:53:52;;;;;;;13.90;10.17;;;9.60;99.90;;;;;;4874868;29;20235;-82
2023/04/16 11:56:26;;;;;;;12.93;9.60;;;9.60;99.90;;;;;;4874407;29;20647;-79
2023/04/16 11:59:11;;;;;;;15.80;14.20;;;9.80;99.90;;;;;;4863910;29;20202;-77
2023/04/16 12:01:40;;;;;;;12.00;9.30;;;9.80;99.90;;;;;;4879260;29;20199;-78
2023/04/16 12:04:07;;;;;;;12.73;10.43;;;9.80;99.90;;;;;;4876904;29;20286;-76
2023/04/16 12:06:34;;;;;;;13.40;10.07;;;9.90;99.90;;;;;;4881331;29;20230;-77
2023/04/16 12:09:21;;;;;;;13.07;9.20;;;9.90;99.90;;;;;;4874896;29;20194;-77
2023/04/16 12:11:48;;;;;;;11.13;8.67;;;9.90;99.90;;;;;;4885000;29;20677;-77
2023/04/16 12:14:16;;;;;;;9.93;8.13;;;9.90;99.90;;;;;;4877447;29;20212;-79
2023/04/16 12:16:43;;;;;;;11.43;8.27;;;9.90;99.90;;;;;;4878009;29;20230;-77
2023/04/16 12:19:12;;;;;;;10.50;7.97;;;9.90;99.90;;;;;;4882047;29;20205;-77
2023/04/16 12:21:40;;;;;;;10.97;9.83;;;10.00;99.90;;;;;;4876803;29;20199;-77
2023/04/16 12:24:08;;;;;;;10.67;9.57;;;10.10;99.90;;;;;;4884723;29;20201;-79
2023/04/16 12:26:40;;;;;;;12.80;10.47;;;10.10;99.90;;;;;;4880957;29;20772;-79
2023/04/16 12:29:22;;;;;;;10.50;9.20;;;10.10;99.90;;;;;;4886417;29;20214;-79
2023/04/16 12:31:50;;;;;;;12.87;11.53;;;10.20;99.90;;;;;;4882591;29;20227;-78
2023/04/16 12:34:18;;;;;;;11.40;10.20;;;10.30;99.90;;;;;;4883163;29;20732;-78
2023/04/16 12:36:46;;;;;;;10.40;9.40;;;10.40;99.90;;;;;;4878862;29;20224;-78
2023/04/16 12:39:14;;;;;;;14.10;12.80;;;10.50;99.90;;;;;;4881481;29;20209;-86
2023/04/16 12:41:42;;;;;;;14.43;13.23;;;10.60;99.90;;;;;;4874316;29;20620;-81
2023/04/16 12:44:12;;;;;;;11.67;10.57;;;10.70;99.90;;;;;;4881736;29;20612;-81
2023/04/16 12:46:42;;;;;;;10.00;8.85;;;10.70;99.90;;;;;;4878110;29;20466;-78
2023/04/16 12:49:10;;;;;;;11.65;10.55;;;10.70;99.90;;;;;;4881975;29;20921;-79
2023/04/16 12:51:38;;;;;;;9.85;8.95;;;10.70;99.90;;;;;;4879117;29;20488;-78
2023/04/16 12:54:07;;;;;;;10.88;9.88;;;10.80;99.90;;;;;;4888888;29;20449;-79
2023/04/16 12:56:34;;;;;;;8.70;7.40;;;10.90;99.90;;;;;;4885982;29;20301;-78
2023/04/16 12:59:01;;;;;;;9.27;8.27;;;10.90;99.90;;;;;;4871825;29;20282;-78
2023/04/16 13:01:28;;;;;;;9.27;8.10;;;11.00;99.90;;;;;;4883614;29;20280;-78
2023/04/16 13:03:56;;;;;;;9.27;8.07;;;11.10;99.90;;;;;;4884156;29;20207;-79
2023/04/16 13:06:23;;;;;;;8.97;8.07;;;11.10;99.90;;;;;;4886405;29;20227;-78
2023/04/16 13:08:50;;;;;;;9.60;8.70;;;11.20;99.90;;;;;;4891403;29;20255;-77
2023/04/16 13:11:17;;;;;;;10.23;8.63;;;11.20;99.90;;;;;;4876406;29;20291;-77
2023/04/16 13:13:44;;;;;;;9.87;8.97;;;11.20;99.90;;;;;;4885205;29;20207;-79
2023/04/16 13:16:11;;;;;;;10.50;9.30;;;11.20;99.90;;;;;;4884338;29;20218;-77
2023/04/16 13:18:39;;;;;;;10.03;8.90;;;11.10;99.90;;;;;;4885571;29;20216;-77
2023/04/16 13:21:07;;;;;;;8.50;7.60;;;11.00;99.90;;;;;;4883065;29;20232;-83
2023/04/16 13:23:35;;;;;;;9.03;7.97;;;10.90;99.90;;;;;;4883175;29;20212;-82
2023/04/16 13:26:01;;;;;;;8.10;7.30;;;11.00;99.90;;;;;;4871033;29;20252;-82
2023/04/16 13:28:28;;;;;;;9.07;8.17;;;11.00;99.90;;;;;;4878826;29;20206;-82
2023/04/16 13:30:55;;;;;;;8.70;7.57;;;10.90;99.90;;;;;;4876202;29;20296;-84
2023/04/16 13:33:22;;;;;;;7.40;6.70;;;10.80;99.90;;;;;;4877852;29;20222;-84